Timeline UpdatesTrip UpdatesNews PostsPvt PostsTravel TipsAdmin PostsConv PostsFollowed PostsChat RequestsBlog PostsPNR Posts

Disclaimer
Search
 
 
Fri Apr 18, 2014 08:39:38 ISTHomeTrainsΣChainsAtlasPNRForumGalleryNewsFAQTripsMembersLoginFeedback
No Recent News for this Train
Other Trains in the News **new
Latest...
Cancelled on 6/2/14 due to rake shortage
Mon Feb 03, 2014 (08:27PM)
⇐ Return Journey: Train# 15609

15610/Avadh Assam Express

Oct 17 2013 (9:16PM)
Change Departure Station:
Change Arrival Station:
Post a Train Travel TipPost a Train Travel Tip **new
Post a Comment/Question/Picture/VideoPost a Comment/Question/Picture/Video
Pantry/Catering
✓ Pantry Car Avbl
✓ Catering Avbl
Loco/Rake Reversals
BTI/Bathinda Junction (6);
RSA - Rake Sharing
No Rake Sharing
Rake/Coach Composition
Loco-HCPV-HCPV-SLR-GS-GS-A1-B1-Army 3A-B2-PC-S1-S2-S3-S4-S5-S6-S7-S8-S9-S10-GS-GS-SLR.
Loco
WDP4 SGUJ
News    PNR    Forum    Time-Table    Availability    Fare Chart    Map    Arr/Dep History    Trips    Gallery    ΣChains    X/O    Timeline    
Travel Time: 19h 58m    30 halts    Distance: 1037 km    Avg Speed: 51 km/hr
Type: Mail/Express
Zone: NFR/Northeast Frontier
Departs @ 19:45 (Avg on time)
Platform# 1
SMTWTFS
Lalgarh Junction/LGH 
Arrives @ 15:43 +1 night (Avg 50m late)
Platform# ???
SMTWTFS
Balamu Junction/BLM 

30 halts. 150 intermediate Stations between Lalgarh Junction and Balamu Junction

Show ALL intermediate Stations  Show Old Time-Table

#CodeStation NameX/OArrivesAvgDepartsAvgHaltPFDay#KmSpeedElevZoneAddress
1LGH»Lalgarh Junction»  -19:45+0110.079225mNWRBikaner, Rajasthan
2LKSLunkaransarX  20:43+820:45+82m1176.172194mNWRLunkaransar, Rajasthan
3MHJMahajan  21:18+1721:20+172m--1115.458199mNWRMahajan, Rajasthan
4SOGSuratgarh Junction (5)  22:25+1022:30+115m--1178.165170mNWRSuratgarh, Rajasthan
5PGKPili Bangan  22:53+1422:55+142m--1203.055176mNWRPilibanga, Rajasthan
6HMHHanumangarh Junction (4)X  23:23+1123:25+152m--1228.774184mNWRHanumangarh, Rajasthan
7SGRASangaria  23:46+2423:48+242m--1254.665193mNWRSangariya, Rajasthan
8MBYMandi Dabwali  00:16+2800:18+282m--2284.830198mNWRMandi Dabwali, Haryana
9BTIBathinda Junction (6)↵¶01:30+102:00+230m42320.379208mNRBathinda, Punjab
10MAURMaur02:27+1002:29+102m--2355.966220mNRMaur Mandi, Punjab
11MSZMansa  02:46+902:48+92m--2374.660222mNRMansa, Punjab
12BLZBudhlada03:04+1003:05+121m--2390.7132223mNRBudhlada, Punjab
13BRZBareta03:12+1803:14+182m--2406.1-223mNRBareta, Punjab
14JHLJakhal Junction  03:18+3003:20+312m--2420.333225mNRJakhal, Haryana
15TUNTohana (2)X03:42+2303:43+241m--2432.5102232mNRTohana, Haryana
16NRWNarwana Junction (4)X  03:58+3204:00+322m--2458.064235mNRWay to Narwana, Haryana
17JINDJind Junction (3)  04:32+2904:35+293m--2491.969222mNR126102., Haryana
18ROKRohtak Junction (3)  05:25+3205:28+333m--2549.081220mNRRohtak, Haryana
19BGZBahadurgarhX  05:58+3606:00+362m--2589.236220mNRBahadurgarh, Haryana
20SSBShakur BastiX  06:33+2906:35+302m--2609.226216mNRPitampura, Delhi NCT
21DKZDelhi KishanGanj (2)  06:51+3306:53+332m--2616.28220mNRSarai Rohilla, Delhi NCT
22DLIOld Delhi Junction (16)X  07:15+2807:45+2330m162619.022219mNRNear Chandni Chowk Metro Station, Delhi NCT
23GZBGhaziabad Junction (6)XO  08:40+1108:45+135m12639.161217mNRGhaziabad, Uttar Pradesh
24PKWPilkhua (3)X  09:10+2609:12+262m12664.742218mNRPilkhuwa, Uttar Pradesh
25HPUHapur Junction (4)O  09:28+2409:30+242m12675.880214mNRHapur Jn., Uttar Pradesh
26AMROAmroha (3)X  10:25+3310:27+332m12749.243217mNRAmroha, Uttar Pradesh
27MBMoradabad Junction (7)X  11:10+2611:20+2710m--2779.853201mNRMoradabad, Uttar Pradesh
28RMURampur Junction (3)  11:51+3211:53+342m--2807.156190mNRRampur, Uttar Pradesh
29BEBareilly Junction (4)  13:00+3713:05+375m12870.158174mNRBareilly, Uttar Pradesh
30SPNShahjahanpur Junction (3)  14:18+3914:23+395m--2940.680156mNRShahjahanpur, Uttar Pradesh
31HRIHardoi (5)  15:10+5015:12+542m321003.664146mNRHardoi, Uttar Pradesh
32BLM•Balamu Junction (4)•X  15:43+5015:45+502m--21036.634139mNRBalamau, Uttar Pradesh
33LKOLucknow Charbagh (9)X  17:45+2218:10+1725m121105.543123mNRCharbagh, Uttar Pradesh
34BBKBarabanki Junction (4)X  18:50+1718:52+182m321134.065122mNRPin-225001, Uttar Pradesh
35JLDJarwal Road (2)X  19:32+3219:34+332m221177.260112mNERBehraich, Uttar Pradesh
36GDGonda Junction (3)X  20:20+4220:35+3415m221223.373110mNERGonda 271001, Uttar Pradesh
37MURMankapur Junction (5)  20:58+3821:00+392m221251.281104mNERDistrict Gonda, Uttar Pradesh
38BSTBasti (4)  21:45+3821:50+385m221311.78190mNERBasti 272001, Uttar Pradesh
39KLDKhalilabad (3)X  22:12+4122:14+412m221341.32786mNERKhalilabad- 272175, Uttar Pradesh
40GKPGorakhpur Junction (10)X  23:30+1623:50+1620m121375.26984mNERGorakhpur 273001, Uttar Pradesh
41DEOSDeoria Sadar (3)  00:33+4200:35+452m--31424.35279mNERDeoria- 274001, Uttar Pradesh
42BTTBhatni Junction (5)  00:59+4601:05+466m--31445.17073mNERDeoria, Uttar Pradesh
43BHTRBhatpar Rani (2)X  01:16+5001:18+502m--31458.05873mNERDeoria, Uttar Pradesh
44MWMairwa (2)O  01:33+5301:35+552m--31472.53273mNERMairwa, Bihar
45SVSiwan Junction (4)X  02:15+3602:20+365m--31493.87770mNERSiwan, Bihar
46EKMAEkma (3)XO  02:46+3602:48+362m--31527.12564mNERSaran, Bihar
47CPRChhapra Junction (6)X  03:55+1004:05+1210m--31555.05958mNERDistt: Saran, Bihar
48SEESonpur Junction (4)O  05:00+2005:10+2310m--31609.12556mECRSaran, Bihar
49HJPHajipur Junction (3)X  05:23+2305:25+282m331614.64655mECR06224-272230, Bihar
50MFPMuzaffarpur Junction (6)X  06:35+3706:45+3610m131668.46957mECRMuzaffarpur, Bihar
51SPJSamastipur Junction (9)XO07:30+1:0607:55+1:0725m--31720.56655mECRSamastipur, Bihar
52DSSDalsingh Sarai (2)  08:16+1:2008:18+1:202m231743.74449mECR06278-221238, Bihar
53BJUBarauni Junction (9)XO  08:55+1:3609:05+1:3610m431771.138 ECRBegusarai, Bihar
54BGSBegu Sarai (2)X  09:26+1:4109:28+1:412m--31784.549 ECR06243-222853, Bihar
55KGGKhagaria Junction (3)XO  10:17+1:3610:19+1:392m--31824.44843mECR06244-223596, Bihar
56MNEMansi Junction (3)X  10:30+1:4010:32+1:412m--31833.24543mECR06244-233234, Bihar
57THBThana Bihpur JunctionO  11:28+1:4111:30+1:412m--31875.24539mECRThana Bihpur, Bihar
58NNANaugachia  11:51+1:3611:53+1:362m--31891.13837mECRBhagalpur, Bihar
59KIRKatihar Junction (7)O  13:25+1:3313:45+1:3220m631948.95835mNFR854105., Bihar
60AZRAzamnagar Road (2)X  14:29+1:4614:31+1:462m--31991.75334mNFRAzamnagar, Bihar
61BOEBarsoi Junction (3)X  14:46+1:4914:48+1:492m--32005.07637mNFRdist- katihar, Bihar
62DLKDalkhola (3)X  15:11+1:5915:13+1:592m--32034.15044mNFRDalkola, West Bengal
63KNEKishanGanj (3)X  15:47+1:5415:52+1:555m--32062.66152mNFRKishanganj, Bihar
64AUBAluabari Road (2)X  16:22+1:5316:24+1:532m--32093.2370mNFRDist - uttar Dinajpur, West Bengal
65NJPNew Jalpaiguri Junction (8)XO  17:55+1:2918:10+1:3115m132149.942114mNFRCity-Siliguri . Dist-Jalpaiguri, West Bengal
66JPEJalpaiguri Road (2)  18:58+1:4419:00+1:442m132183.56489mNFRdist - Jalpaiguri 735102, West Bengal
67DQGDhupguri (2)X  19:30+1:5119:35+1:515m--32215.35675mNFRDist - Jalpaiguri, West Bengal
68NCBNew Cooch Behar Junction (5)X  20:40+1:4420:45+1:455m--32275.44547mNFRCooch Behar, West Bengal
69NOQNew Alipurduar (2)  21:10+1:4421:15+1:445m--32294.18348mNFRAlipurduar-736121 03564-255207, West Bengal
70FKMFakiragram Junction (4)XO  22:05+1:4822:07+1:482m332363.05444mNFR03661-283454, Assam
71KOJKokrajhar (3)X  22:18+1:4522:20+1:452m232372.92846mNFR03661-270618, Assam
72NBQNew Bongaigaon Junction (4)X  23:20+1:4223:30+1:4210m--32400.85558mNFR783381., Assam
73BPRDBarpeta RoadX  00:18+1:3800:20+1:412m--42444.97149mNFRHowli, Assam
74RNYRangiya Junction (5)  01:15+1:4101:25+1:3810m--42509.73958mNFRRangia, Assam
75KYQKamakhya Junction (4)  02:28+1:1802:30+1:212m--42550.41455mNFRDist - KAMRUP, Assam
76GHYGuwahati (7)  03:00+1:10---42557.4-60mNFRGuwahati, Assam
Scroll to Top
Scroll to Bottom